Winnsboro, SC

4:18 AM EDT on October 24, 2014 (GMT -0400)
Fairfield County | Change Station
CLOSE
Current Station
Airport
Location: Winnsboro,
Elevation: 577 ft
Nearby Weather Stations

Elev 577 ft 34.32 °N, 81.11 °W | Updated 3 minutes ago

Clear
Clear
52 °F
Feels Like 52 °F
N
6
Wind Variable Wind from NNE

Today
High -- | Low -- °F
--% Chance of Precip.
Yesterday
High -- | Low -- °F
Precip. -- in
7:37 AM 6:39 PM
New Moon, 0% visible
Pressure 30.03 in
Visibility 10.0 miles
Clouds Clear
Dew Point 43 °F
Humidity 71%
Rainfall 0.00 in
Snow Depth Not available.
UV 0 out of 12
Pollen 3.40 out of 12
Air Quality Not available.
Flu Activity Sporadic
METAR KFDW 240815Z AUTO 03005KT 10SM CLR 11/06 A3003 RMK AO1

More Conditions Fewer Conditions

Pressure 30.03 in
Visibility 10.0 miles
Clouds Clear
Dew Point 43 °F
Humidity 71%
Rainfall 0.00 in
Snow Depth Not available.
UV 0 out of 12
Pollen 3.40 out of 12
Air Quality Not available.
Flu Activity Sporadic
METAR KFDW 240815Z AUTO 03005KT 10SM CLR 11/06 A3003 RMK AO1

More Conditions Fewer Conditions

10-Day Weather Forecast

Almanac

Astronomy

Oct. 24, 2014 Rise Set
Actual Time 7:37 AM EDT 6:39 PM EDT
Civil Twilight 7:11 AM EDT 7:04 PM EDT
Nautical Twilight 6:42 AM EDT 7:34 PM EDT
Astronomical Twilight 6:13 AM EDT 8:03 PM EDT
Moon 8:13 AM EDT 7:20 PM EDT
Length of Visible Light 11h 53m
Length of Day
11h 02m
Tomorrow will be 1m 58s shorter.
New Moon, 0% of the Moon is Illuminated
Today
New Moon
Oct 30
First Quarter
Nov 6
Full
Nov 14
Last Quarter
Nov 22
New

Today's Extremes

State Highs State Lows

Community

WunderPhotos

Upload Photos

1,764,511 photos uploaded!

WunderBlogs® & News

Nearby

Air Quality

  Air Quality AQ Index Pollutant
Yesterday Good
OZONE

Snow Depth

Station Depth Elevation
No new snow has been reported.

Earthquake Activity

City Distance Mag. Time & Date
No recent earthquake activity has been reported nearby.
Minimum magnitude displayed is 2.5.

Coastal Water Temperatures

Place Temperature
No Stations Reporting

Nearby Weather Stations